sensor_id;sensor_type;location;lat;lon;timestamp;temperature;humidity
25504;DHT22;13410;52.114;5.718;2023-04-12T00:01:52;13.90;99.90
25504;DHT22;13410;52.114;5.718;2023-04-12T00:04:18;13.90;99.90
25504;DHT22;13410;52.114;5.718;2023-04-12T00:06:46;13.90;99.90
25504;DHT22;13410;52.114;5.718;2023-04-12T00:09:15;13.80;99.90
25504;DHT22;13410;52.114;5.718;2023-04-12T00:11:41;13.70;99.90
25504;DHT22;13410;52.114;5.718;2023-04-12T00:14:07;13.70;99.90
25504;DHT22;13410;52.114;5.718;2023-04-12T00:16:32;13.70;99.90
25504;DHT22;13410;52.114;5.718;2023-04-12T00:18:58;13.60;99.90
25504;DHT22;13410;52.114;5.718;2023-04-12T00:21:25;13.40;99.90
25504;DHT22;13410;52.114;5.718;2023-04-12T00:23:53;13.60;99.90
25504;DHT22;13410;52.114;5.718;2023-04-12T00:26:19;13.60;99.90
25504;DHT22;13410;52.114;5.718;2023-04-12T00:28:46;13.70;99.90
25504;DHT22;13410;52.114;5.718;2023-04-12T00:31:12;13.60;99.90
25504;DHT22;13410;52.114;5.718;2023-04-12T00:33:38;13.70;99.90
25504;DHT22;13410;52.114;5.718;2023-04-12T00:36:04;13.60;99.90
25504;DHT22;13410;52.114;5.718;2023-04-12T00:38:30;13.50;99.90
25504;DHT22;13410;52.114;5.718;2023-04-12T00:40:55;13.70;99.90
25504;DHT22;13410;52.114;5.718;2023-04-12T00:43:21;13.50;99.90
25504;DHT22;13410;52.114;5.718;2023-04-12T00:45:48;13.40;99.90
25504;DHT22;13410;52.114;5.718;2023-04-12T00:48:14;13.40;99.90
25504;DHT22;13410;52.114;5.718;2023-04-12T00:50:40;13.30;99.90
25504;DHT22;13410;52.114;5.718;2023-04-12T00:53:07;13.20;99.90
25504;DHT22;13410;52.114;5.718;2023-04-12T00:55:36;13.10;99.90
25504;DHT22;13410;52.114;5.718;2023-04-12T00:58:01;13.20;99.90
25504;DHT22;13410;52.114;5.718;2023-04-12T01:00:29;13.20;99.90
25504;DHT22;13410;52.114;5.718;2023-04-12T01:02:55;13.30;99.90
25504;DHT22;13410;52.114;5.718;2023-04-12T01:05:23;13.20;99.90
25504;DHT22;13410;52.114;5.718;2023-04-12T01:12:50;13.20;99.90
25504;DHT22;13410;52.114;5.718;2023-04-12T01:15:18;13.10;99.90
25504;DHT22;13410;52.114;5.718;2023-04-12T01:17:55;13.10;99.90
25504;DHT22;13410;52.114;5.718;2023-04-12T01:20:27;12.90;99.90
25504;DHT22;13410;52.114;5.718;2023-04-12T01:28:41;12.70;99.90
25504;DHT22;13410;52.114;5.718;2023-04-12T01:31:08;12.70;99.90
25504;DHT22;13410;52.114;5.718;2023-04-12T01:33:37;12.70;99.90
25504;DHT22;13410;52.114;5.718;2023-04-12T01:36:20;12.50;99.90
25504;DHT22;13410;52.114;5.718;2023-04-12T01:38:47;12.50;99.90
25504;DHT22;13410;52.114;5.718;2023-04-12T01:41:14;12.40;99.90
25504;DHT22;13410;52.114;5.718;2023-04-12T01:43:44;12.30;99.90
25504;DHT22;13410;52.114;5.718;2023-04-12T01:46:14;12.40;99.90
25504;DHT22;13410;52.114;5.718;2023-04-12T01:48:50;12.50;99.90
25504;DHT22;13410;52.114;5.718;2023-04-12T01:54:02;12.40;99.90
25504;DHT22;13410;52.114;5.718;2023-04-12T01:56:30;12.20;99.90
25504;DHT22;13410;52.114;5.718;2023-04-12T01:59:00;12.10;99.90
25504;DHT22;13410;52.114;5.718;2023-04-12T02:01:27;12.10;99.90
25504;DHT22;13410;52.114;5.718;2023-04-12T02:03:55;12.00;99.90
25504;DHT22;13410;52.114;5.718;2023-04-12T02:06:25;11.70;99.90
25504;DHT22;13410;52.114;5.718;2023-04-12T02:09:00;11.70;99.90
25504;DHT22;13410;52.114;5.718;2023-04-12T02:11:26;11.60;99.90
25504;DHT22;13410;52.114;5.718;2023-04-12T02:13:52;11.70;99.90
25504;DHT22;13410;52.114;5.718;2023-04-12T02:16:17;11.70;99.90
25504;DHT22;13410;52.114;5.718;2023-04-12T02:18:46;12.00;99.90
25504;DHT22;13410;52.114;5.718;2023-04-12T02:21:11;12.10;99.90
25504;DHT22;13410;52.114;5.718;2023-04-12T02:23:38;12.10;99.90
25504;DHT22;13410;52.114;5.718;2023-04-12T02:26:04;12.20;99.90
25504;DHT22;13410;52.114;5.718;2023-04-12T02:28:29;12.10;99.90
25504;DHT22;13410;52.114;5.718;2023-04-12T02:30:55;11.90;99.90
25504;DHT22;13410;52.114;5.718;2023-04-12T02:33:22;11.60;99.90
25504;DHT22;13410;52.114;5.718;2023-04-12T02:35:53;11.40;99.90
25504;DHT22;13410;52.114;5.718;2023-04-12T02:38:18;11.20;99.90
25504;DHT22;13410;52.114;5.718;2023-04-12T02:40:44;11.30;99.90
25504;DHT22;13410;52.114;5.718;2023-04-12T02:43:09;11.40;99.90
25504;DHT22;13410;52.114;5.718;2023-04-12T02:45:35;11.60;99.90
25504;DHT22;13410;52.114;5.718;2023-04-12T02:48:01;11.50;99.90
25504;DHT22;13410;52.114;5.718;2023-04-12T02:50:29;11.70;99.90
25504;DHT22;13410;52.114;5.718;2023-04-12T02:52:55;11.50;99.90
25504;DHT22;13410;52.114;5.718;2023-04-12T02:55:21;11.30;99.90
25504;DHT22;13410;52.114;5.718;2023-04-12T02:57:47;11.40;99.90
25504;DHT22;13410;52.114;5.718;2023-04-12T03:00:13;11.40;99.90
25504;DHT22;13410;52.114;5.718;2023-04-12T03:02:42;11.30;99.90
25504;DHT22;13410;52.114;5.718;2023-04-12T03:05:08;11.20;99.90
25504;DHT22;13410;52.114;5.718;2023-04-12T03:07:34;11.30;99.90
25504;DHT22;13410;52.114;5.718;2023-04-12T03:10:00;11.40;99.90
25504;DHT22;13410;52.114;5.718;2023-04-12T03:12:26;11.50;99.90
25504;DHT22;13410;52.114;5.718;2023-04-12T03:14:53;11.70;99.90
25504;DHT22;13410;52.114;5.718;2023-04-12T03:17:18;11.90;99.90
25504;DHT22;13410;52.114;5.718;2023-04-12T03:19:44;11.70;99.90
25504;DHT22;13410;52.114;5.718;2023-04-12T03:22:10;11.40;99.90
25504;DHT22;13410;52.114;5.718;2023-04-12T03:24:36;11.50;99.90
25504;DHT22;13410;52.114;5.718;2023-04-12T03:27:05;11.30;99.90
25504;DHT22;13410;52.114;5.718;2023-04-12T03:29:32;11.20;99.90
25504;DHT22;13410;52.114;5.718;2023-04-12T03:31:58;11.40;99.90
25504;DHT22;13410;52.114;5.718;2023-04-12T03:34:26;11.40;99.90
25504;DHT22;13410;52.114;5.718;2023-04-12T03:36:59;11.60;99.90
25504;DHT22;13410;52.114;5.718;2023-04-12T03:39:25;11.60;99.90
25504;DHT22;13410;52.114;5.718;2023-04-12T03:41:50;11.60;99.90
25504;DHT22;13410;52.114;5.718;2023-04-12T03:44:18;11.50;99.90
25504;DHT22;13410;52.114;5.718;2023-04-12T03:46:44;11.60;99.90
25504;DHT22;13410;52.114;5.718;2023-04-12T03:49:10;11.60;99.90
25504;DHT22;13410;52.114;5.718;2023-04-12T03:51:36;11.70;99.90
25504;DHT22;13410;52.114;5.718;2023-04-12T03:54:08;11.80;99.90
25504;DHT22;13410;52.114;5.718;2023-04-12T03:56:33;11.80;99.90
25504;DHT22;13410;52.114;5.718;2023-04-12T03:58:59;11.80;99.90
25504;DHT22;13410;52.114;5.718;2023-04-12T04:01:26;11.60;99.90
25504;DHT22;13410;52.114;5.718;2023-04-12T04:03:51;11.60;99.90
25504;DHT22;13410;52.114;5.718;2023-04-12T04:06:17;11.40;99.90
25504;DHT22;13410;52.114;5.718;2023-04-12T04:08:43;11.40;99.90
25504;DHT22;13410;52.114;5.718;2023-04-12T04:11:10;11.20;99.90
25504;DHT22;13410;52.114;5.718;2023-04-12T04:13:36;11.20;99.90
25504;DHT22;13410;52.114;5.718;2023-04-12T04:16:03;11.30;99.90
25504;DHT22;13410;52.114;5.718;2023-04-12T04:18:29;11.50;99.90
25504;DHT22;13410;52.114;5.718;2023-04-12T04:20:56;11.60;99.90
25504;DHT22;13410;52.114;5.718;2023-04-12T04:23:23;11.60;99.90
25504;DHT22;13410;52.114;5.718;2023-04-12T04:25:49;11.40;99.90
25504;DHT22;13410;52.114;5.718;2023-04-12T04:28:15;11.30;99.90
25504;DHT22;13410;52.114;5.718;2023-04-12T04:30:42;11.40;99.90
25504;DHT22;13410;52.114;5.718;2023-04-12T04:33:13;11.60;99.90
25504;DHT22;13410;52.114;5.718;2023-04-12T04:35:40;11.50;99.90
25504;DHT22;13410;52.114;5.718;2023-04-12T04:38:07;11.10;99.90
25504;DHT22;13410;52.114;5.718;2023-04-12T04:40:35;11.10;99.90
25504;DHT22;13410;52.114;5.718;2023-04-12T04:43:01;11.10;99.90
25504;DHT22;13410;52.114;5.718;2023-04-12T04:45:27;11.10;99.90
25504;DHT22;13410;52.114;5.718;2023-04-12T04:47:53;11.30;99.90
25504;DHT22;13410;52.114;5.718;2023-04-12T04:50:21;11.20;99.90
25504;DHT22;13410;52.114;5.718;2023-04-12T04:52:48;11.30;99.90
25504;DHT22;13410;52.114;5.718;2023-04-12T04:55:14;11.30;99.90
25504;DHT22;13410;52.114;5.718;2023-04-12T04:57:42;11.20;99.90
25504;DHT22;13410;52.114;5.718;2023-04-12T05:00:08;11.10;99.90
25504;DHT22;13410;52.114;5.718;2023-04-12T05:02:41;11.20;99.90
25504;DHT22;13410;52.114;5.718;2023-04-12T05:05:11;11.00;99.90
25504;DHT22;13410;52.114;5.718;2023-04-12T05:07:38;11.10;99.90
25504;DHT22;13410;52.114;5.718;2023-04-12T05:10:04;11.10;99.90
25504;DHT22;13410;52.114;5.718;2023-04-12T05:12:30;11.30;99.90
25504;DHT22;13410;52.114;5.718;2023-04-12T05:14:56;11.30;99.90
25504;DHT22;13410;52.114;5.718;2023-04-12T05:17:21;11.40;99.90
25504;DHT22;13410;52.114;5.718;2023-04-12T05:19:47;11.70;99.90
25504;DHT22;13410;52.114;5.718;2023-04-12T05:22:12;11.80;99.90
25504;DHT22;13410;52.114;5.718;2023-04-12T05:24:38;12.00;99.90
25504;DHT22;13410;52.114;5.718;2023-04-12T05:27:04;12.00;99.90
25504;DHT22;13410;52.114;5.718;2023-04-12T05:29:30;12.20;99.90
25504;DHT22;13410;52.114;5.718;2023-04-12T05:31:57;12.30;99.90
25504;DHT22;13410;52.114;5.718;2023-04-12T05:34:22;12.30;99.90
25504;DHT22;13410;52.114;5.718;2023-04-12T05:36:50;12.30;99.90
25504;DHT22;13410;52.114;5.718;2023-04-12T05:39:15;12.30;99.90
25504;DHT22;13410;52.114;5.718;2023-04-12T05:41:41;12.30;99.90
25504;DHT22;13410;52.114;5.718;2023-04-12T05:44:06;11.90;99.90
25504;DHT22;13410;52.114;5.718;2023-04-12T05:46:32;11.80;99.90
25504;DHT22;13410;52.114;5.718;2023-04-12T05:48:57;11.80;99.90
25504;DHT22;13410;52.114;5.718;2023-04-12T05:51:23;11.60;99.90
25504;DHT22;13410;52.114;5.718;2023-04-12T05:53:49;11.80;99.90
25504;DHT22;13410;52.114;5.718;2023-04-12T05:56:23;12.00;99.90
25504;DHT22;13410;52.114;5.718;2023-04-12T05:58:48;12.10;99.90
25504;DHT22;13410;52.114;5.718;2023-04-12T06:01:14;11.70;99.90
25504;DHT22;13410;52.114;5.718;2023-04-12T06:03:41;11.90;99.90
25504;DHT22;13410;52.114;5.718;2023-04-12T06:06:09;12.10;99.90
25504;DHT22;13410;52.114;5.718;2023-04-12T06:08:35;12.20;99.90
25504;DHT22;13410;52.114;5.718;2023-04-12T06:11:04;12.00;99.90
25504;DHT22;13410;52.114;5.718;2023-04-12T06:13:30;12.10;99.90
25504;DHT22;13410;52.114;5.718;2023-04-12T06:15:55;12.20;99.90
25504;DHT22;13410;52.114;5.718;2023-04-12T06:18:21;12.30;99.90
25504;DHT22;13410;52.114;5.718;2023-04-12T06:20:47;12.10;99.90
25504;DHT22;13410;52.114;5.718;2023-04-12T06:23:22;12.10;99.90
25504;DHT22;13410;52.114;5.718;2023-04-12T06:25:48;12.20;99.90
25504;DHT22;13410;52.114;5.718;2023-04-12T06:28:14;12.30;99.90
25504;DHT22;13410;52.114;5.718;2023-04-12T06:30:40;12.50;99.90
25504;DHT22;13410;52.114;5.718;2023-04-12T06:33:06;12.70;99.90
25504;DHT22;13410;52.114;5.718;2023-04-12T06:35:32;13.00;99.90
25504;DHT22;13410;52.114;5.718;2023-04-12T06:37:58;13.00;99.90
25504;DHT22;13410;52.114;5.718;2023-04-12T06:40:23;13.10;99.90
25504;DHT22;13410;52.114;5.718;2023-04-12T06:42:49;13.10;99.90
25504;DHT22;13410;52.114;5.718;2023-04-12T06:45:15;13.20;99.90
25504;DHT22;13410;52.114;5.718;2023-04-12T06:47:40;13.10;99.90
25504;DHT22;13410;52.114;5.718;2023-04-12T06:50:06;13.10;99.90
25504;DHT22;13410;52.114;5.718;2023-04-12T06:52:32;13.10;99.90
25504;DHT22;13410;52.114;5.718;2023-04-12T06:54:58;13.30;99.90
25504;DHT22;13410;52.114;5.718;2023-04-12T06:57:23;13.30;99.90
25504;DHT22;13410;52.114;5.718;2023-04-12T06:59:52;13.40;99.90
25504;DHT22;13410;52.114;5.718;2023-04-12T07:02:18;13.70;99.90
25504;DHT22;13410;52.114;5.718;2023-04-12T07:04:43;13.70;99.90
25504;DHT22;13410;52.114;5.718;2023-04-12T07:07:09;13.70;99.90
25504;DHT22;13410;52.114;5.718;2023-04-12T07:09:34;13.80;99.90
25504;DHT22;13410;52.114;5.718;2023-04-12T07:12:00;13.90;99.90
25504;DHT22;13410;52.114;5.718;2023-04-12T07:14:27;13.90;99.90
25504;DHT22;13410;52.114;5.718;2023-04-12T07:16:52;13.90;99.90
25504;DHT22;13410;52.114;5.718;2023-04-12T07:19:18;13.90;99.90
25504;DHT22;13410;52.114;5.718;2023-04-12T07:21:44;13.90;99.90
25504;DHT22;13410;52.114;5.718;2023-04-12T07:24:10;14.00;99.90
25504;DHT22;13410;52.114;5.718;2023-04-12T07:26:36;14.10;99.90
25504;DHT22;13410;52.114;5.718;2023-04-12T07:29:01;14.20;99.90
25504;DHT22;13410;52.114;5.718;2023-04-12T07:31:27;14.30;99.90
25504;DHT22;13410;52.114;5.718;2023-04-12T07:33:55;14.40;99.90
25504;DHT22;13410;52.114;5.718;2023-04-12T07:36:20;14.60;99.90
25504;DHT22;13410;52.114;5.718;2023-04-12T07:38:46;14.50;99.90
25504;DHT22;13410;52.114;5.718;2023-04-12T07:41:13;14.60;99.90
25504;DHT22;13410;52.114;5.718;2023-04-12T07:43:38;14.60;99.90
25504;DHT22;13410;52.114;5.718;2023-04-12T07:46:04;14.80;99.90
25504;DHT22;13410;52.114;5.718;2023-04-12T07:48:32;14.90;99.90
25504;DHT22;13410;52.114;5.718;2023-04-12T07:50:58;15.00;99.90
25504;DHT22;13410;52.114;5.718;2023-04-12T07:53:26;15.00;99.90
25504;DHT22;13410;52.114;5.718;2023-04-12T07:55:52;15.00;99.90
25504;DHT22;13410;52.114;5.718;2023-04-12T07:58:19;15.10;99.90
25504;DHT22;13410;52.114;5.718;2023-04-12T08:00:45;15.20;99.90
25504;DHT22;13410;52.114;5.718;2023-04-12T08:03:12;15.20;99.90
25504;DHT22;13410;52.114;5.718;2023-04-12T08:05:38;15.40;99.90
25504;DHT22;13410;52.114;5.718;2023-04-12T08:08:04;15.40;99.90
25504;DHT22;13410;52.114;5.718;2023-04-12T08:10:30;15.50;99.90
25504;DHT22;13410;52.114;5.718;2023-04-12T08:12:56;15.60;99.90
25504;DHT22;13410;52.114;5.718;2023-04-12T08:15:22;15.90;99.90
25504;DHT22;13410;52.114;5.718;2023-04-12T08:17:48;16.00;99.90
25504;DHT22;13410;52.114;5.718;2023-04-12T08:20:14;16.00;99.90
25504;DHT22;13410;52.114;5.718;2023-04-12T08:22:41;16.10;99.90
25504;DHT22;13410;52.114;5.718;2023-04-12T08:25:07;16.20;99.90
25504;DHT22;13410;52.114;5.718;2023-04-12T08:27:33;16.30;99.90
25504;DHT22;13410;52.114;5.718;2023-04-12T08:29:59;16.40;99.90
25504;DHT22;13410;52.114;5.718;2023-04-12T08:32:24;16.30;99.90
25504;DHT22;13410;52.114;5.718;2023-04-12T08:34:50;16.30;99.90
25504;DHT22;13410;52.114;5.718;2023-04-12T08:37:16;16.40;99.90
25504;DHT22;13410;52.114;5.718;2023-04-12T08:39:42;16.50;99.90
25504;DHT22;13410;52.114;5.718;2023-04-12T08:42:08;16.50;99.90
25504;DHT22;13410;52.114;5.718;2023-04-12T08:44:38;16.50;99.90
25504;DHT22;13410;52.114;5.718;2023-04-12T08:47:06;16.50;99.90
25504;DHT22;13410;52.114;5.718;2023-04-12T08:49:33;16.60;99.90
25504;DHT22;13410;52.114;5.718;2023-04-12T08:52:01;16.80;99.90
25504;DHT22;13410;52.114;5.718;2023-04-12T08:54:27;16.90;99.90
25504;DHT22;13410;52.114;5.718;2023-04-12T08:56:55;17.00;99.90
25504;DHT22;13410;52.114;5.718;2023-04-12T08:59:26;17.50;99.90
25504;DHT22;13410;52.114;5.718;2023-04-12T09:01:54;17.60;99.90
25504;DHT22;13410;52.114;5.718;2023-04-12T09:04:20;18.10;99.90
25504;DHT22;13410;52.114;5.718;2023-04-12T09:06:46;18.50;99.90
25504;DHT22;13410;52.114;5.718;2023-04-12T09:09:11;18.80;99.90
25504;DHT22;13410;52.114;5.718;2023-04-12T09:11:37;19.10;99.90
25504;DHT22;13410;52.114;5.718;2023-04-12T09:14:03;19.20;99.90
25504;DHT22;13410;52.114;5.718;2023-04-12T09:16:37;19.50;99.90
25504;DHT22;13410;52.114;5.718;2023-04-12T09:19:04;19.70;99.90
25504;DHT22;13410;52.114;5.718;2023-04-12T09:21:34;19.70;99.90
25504;DHT22;13410;52.114;5.718;2023-04-12T09:24:06;19.80;99.90
25504;DHT22;13410;52.114;5.718;2023-04-12T09:26:37;19.80;99.90
25504;DHT22;13410;52.114;5.718;2023-04-12T09:29:03;19.60;99.90
25504;DHT22;13410;52.114;5.718;2023-04-12T09:31:29;19.50;99.90
25504;DHT22;13410;52.114;5.718;2023-04-12T09:34:06;19.70;99.90
25504;DHT22;13410;52.114;5.718;2023-04-12T09:36:39;20.00;99.90
25504;DHT22;13410;52.114;5.718;2023-04-12T09:39:06;19.90;99.90
25504;DHT22;13410;52.114;5.718;2023-04-12T09:41:32;20.10;99.90
25504;DHT22;13410;52.114;5.718;2023-04-12T09:43:59;20.10;99.90
25504;DHT22;13410;52.114;5.718;2023-04-12T09:46:24;20.00;99.90
25504;DHT22;13410;52.114;5.718;2023-04-12T09:48:55;20.20;99.90
25504;DHT22;13410;52.114;5.718;2023-04-12T09:51:27;20.20;99.90
25504;DHT22;13410;52.114;5.718;2023-04-12T09:54:03;20.30;99.90
25504;DHT22;13410;52.114;5.718;2023-04-12T09:56:31;20.30;99.90
25504;DHT22;13410;52.114;5.718;2023-04-12T09:59:02;20.30;99.90
25504;DHT22;13410;52.114;5.718;2023-04-12T10:01:32;20.10;99.90
25504;DHT22;13410;52.114;5.718;2023-04-12T10:04:00;20.20;99.90
25504;DHT22;13410;52.114;5.718;2023-04-12T10:06:26;20.30;99.90
25504;DHT22;13410;52.114;5.718;2023-04-12T10:08:53;20.20;99.90
25504;DHT22;13410;52.114;5.718;2023-04-12T10:11:19;20.30;99.90
25504;DHT22;13410;52.114;5.718;2023-04-12T10:13:46;20.50;99.90
25504;DHT22;13410;52.114;5.718;2023-04-12T10:16:12;20.40;99.90
25504;DHT22;13410;52.114;5.718;2023-04-12T10:18:40;20.40;99.90
25504;DHT22;13410;52.114;5.718;2023-04-12T10:21:07;20.20;99.90
25504;DHT22;13410;52.114;5.718;2023-04-12T10:23:32;20.20;99.90
25504;DHT22;13410;52.114;5.718;2023-04-12T10:25:59;20.30;99.90
25504;DHT22;13410;52.114;5.718;2023-04-12T10:28:26;20.30;99.90
25504;DHT22;13410;52.114;5.718;2023-04-12T10:30:56;20.10;99.90
25504;DHT22;13410;52.114;5.718;2023-04-12T10:33:29;20.00;99.90
25504;DHT22;13410;52.114;5.718;2023-04-12T10:36:02;19.80;99.90
25504;DHT22;13410;52.114;5.718;2023-04-12T10:38:46;19.90;99.90
25504;DHT22;13410;52.114;5.718;2023-04-12T10:41:13;20.00;99.90
25504;DHT22;13410;52.114;5.718;2023-04-12T10:43:40;20.00;99.90
25504;DHT22;13410;52.114;5.718;2023-04-12T10:46:06;19.40;99.90
25504;DHT22;13410;52.114;5.718;2023-04-12T10:48:49;19.30;99.90
25504;DHT22;13410;52.114;5.718;2023-04-12T10:51:23;19.70;99.90
25504;DHT22;13410;52.114;5.718;2023-04-12T10:53:51;20.00;99.90
25504;DHT22;13410;52.114;5.718;2023-04-12T10:59:12;20.30;99.90
25504;DHT22;13410;52.114;5.718;2023-04-12T11:01:39;20.40;99.90
25504;DHT22;13410;52.114;5.718;2023-04-12T11:06:55;20.40;99.90
25504;DHT22;13410;52.114;5.718;2023-04-12T11:19:39;20.50;99.90
25504;DHT22;13410;52.114;5.718;2023-04-12T11:22:11;20.70;99.90
25504;DHT22;13410;52.114;5.718;2023-04-12T11:24:37;20.70;99.90
25504;DHT22;13410;52.114;5.718;2023-04-12T11:27:03;20.50;99.90
25504;DHT22;13410;52.114;5.718;2023-04-12T11:29:29;20.40;99.90
25504;DHT22;13410;52.114;5.718;2023-04-12T11:31:57;20.70;99.90
25504;DHT22;13410;52.114;5.718;2023-04-12T11:34:23;20.70;99.90
25504;DHT22;13410;52.114;5.718;2023-04-12T11:36:52;20.50;99.90
25504;DHT22;13410;52.114;5.718;2023-04-12T11:39:19;20.40;99.90
25504;DHT22;13410;52.114;5.718;2023-04-12T11:41:48;19.90;99.90
25504;DHT22;13410;52.114;5.718;2023-04-12T11:44:15;19.50;99.90
25504;DHT22;13410;52.114;5.718;2023-04-12T11:46:46;19.10;99.90
25504;DHT22;13410;52.114;5.718;2023-04-12T11:49:16;18.60;99.90
25504;DHT22;13410;52.114;5.718;2023-04-12T11:51:43;18.40;99.90
25504;DHT22;13410;52.114;5.718;2023-04-12T11:54:12;18.30;99.90
25504;DHT22;13410;52.114;5.718;2023-04-12T11:56:39;18.20;99.90
25504;DHT22;13410;52.114;5.718;2023-04-12T11:59:05;18.40;99.90
25504;DHT22;13410;52.114;5.718;2023-04-12T12:01:31;18.50;99.90
25504;DHT22;13410;52.114;5.718;2023-04-12T12:03:58;18.20;99.90
25504;DHT22;13410;52.114;5.718;2023-04-12T12:06:24;18.10;99.90
25504;DHT22;13410;52.114;5.718;2023-04-12T12:08:51;18.30;99.90
25504;DHT22;13410;52.114;5.718;2023-04-12T12:11:19;18.70;99.90
25504;DHT22;13410;52.114;5.718;2023-04-12T12:13:50;19.10;99.90
25504;DHT22;13410;52.114;5.718;2023-04-12T12:16:16;19.50;99.90
25504;DHT22;13410;52.114;5.718;2023-04-12T12:18:44;19.80;99.90
25504;DHT22;13410;52.114;5.718;2023-04-12T12:21:12;20.20;99.90
25504;DHT22;13410;52.114;5.718;2023-04-12T12:23:40;20.20;99.90
25504;DHT22;13410;52.114;5.718;2023-04-12T12:26:06;20.30;99.90
25504;DHT22;13410;52.114;5.718;2023-04-12T12:28:38;20.30;99.90
25504;DHT22;13410;52.114;5.718;2023-04-12T12:31:18;19.70;99.90
25504;DHT22;13410;52.114;5.718;2023-04-12T12:33:44;19.30;99.90
25504;DHT22;13410;52.114;5.718;2023-04-12T12:36:11;19.20;99.90
25504;DHT22;13410;52.114;5.718;2023-04-12T12:38:39;19.10;99.90
25504;DHT22;13410;52.114;5.718;2023-04-12T12:41:18;19.00;99.90
25504;DHT22;13410;52.114;5.718;2023-04-12T12:43:48;19.00;99.90
25504;DHT22;13410;52.114;5.718;2023-04-12T12:46:14;18.90;99.90
25504;DHT22;13410;52.114;5.718;2023-04-12T12:48:42;19.00;99.90
25504;DHT22;13410;52.114;5.718;2023-04-12T12:51:08;19.00;99.90
25504;DHT22;13410;52.114;5.718;2023-04-12T12:53:38;19.00;99.90
25504;DHT22;13410;52.114;5.718;2023-04-12T12:56:04;19.20;99.90
25504;DHT22;13410;52.114;5.718;2023-04-12T12:58:30;19.30;99.90
25504;DHT22;13410;52.114;5.718;2023-04-12T13:00:56;19.20;99.90
25504;DHT22;13410;52.114;5.718;2023-04-12T13:03:21;19.10;99.90
25504;DHT22;13410;52.114;5.718;2023-04-12T13:05:47;19.00;99.90
25504;DHT22;13410;52.114;5.718;2023-04-12T13:08:14;19.10;99.90
25504;DHT22;13410;52.114;5.718;2023-04-12T13:10:40;19.10;99.90
25504;DHT22;13410;52.114;5.718;2023-04-12T13:13:05;18.90;99.90
25504;DHT22;13410;52.114;5.718;2023-04-12T13:15:31;18.50;99.90
25504;DHT22;13410;52.114;5.718;2023-04-12T13:17:56;18.10;99.90
25504;DHT22;13410;52.114;5.718;2023-04-12T13:20:22;18.10;99.90
25504;DHT22;13410;52.114;5.718;2023-04-12T13:22:49;18.10;99.90
25504;DHT22;13410;52.114;5.718;2023-04-12T13:25:15;18.00;99.90
25504;DHT22;13410;52.114;5.718;2023-04-12T13:27:41;18.00;99.90
25504;DHT22;13410;52.114;5.718;2023-04-12T13:30:07;18.10;99.90
25504;DHT22;13410;52.114;5.718;2023-04-12T13:32:32;18.30;99.90
25504;DHT22;13410;52.114;5.718;2023-04-12T13:34:58;18.30;99.90
25504;DHT22;13410;52.114;5.718;2023-04-12T13:37:23;18.30;99.90
25504;DHT22;13410;52.114;5.718;2023-04-12T13:39:50;18.20;99.90
25504;DHT22;13410;52.114;5.718;2023-04-12T13:42:15;18.30;99.90
25504;DHT22;13410;52.114;5.718;2023-04-12T13:44:41;18.60;99.90
25504;DHT22;13410;52.114;5.718;2023-04-12T13:47:07;18.60;99.90
25504;DHT22;13410;52.114;5.718;2023-04-12T13:49:33;18.60;99.90
25504;DHT22;13410;52.114;5.718;2023-04-12T13:52:00;18.80;99.90
25504;DHT22;13410;52.114;5.718;2023-04-12T13:54:26;18.90;99.90
25504;DHT22;13410;52.114;5.718;2023-04-12T13:56:51;18.70;99.90
25504;DHT22;13410;52.114;5.718;2023-04-12T13:59:17;18.60;99.90
25504;DHT22;13410;52.114;5.718;2023-04-12T14:01:43;18.50;99.90
25504;DHT22;13410;52.114;5.718;2023-04-12T14:04:08;18.40;99.90
25504;DHT22;13410;52.114;5.718;2023-04-12T14:06:34;18.40;99.90
25504;DHT22;13410;52.114;5.718;2023-04-12T14:09:00;18.50;99.90
25504;DHT22;13410;52.114;5.718;2023-04-12T14:11:26;18.50;99.90
25504;DHT22;13410;52.114;5.718;2023-04-12T14:13:52;18.30;99.90
25504;DHT22;13410;52.114;5.718;2023-04-12T14:16:18;18.10;99.90
25504;DHT22;13410;52.114;5.718;2023-04-12T14:18:44;18.30;99.90
25504;DHT22;13410;52.114;5.718;2023-04-12T14:21:09;18.10;99.90
25504;DHT22;13410;52.114;5.718;2023-04-12T14:23:35;18.10;99.90
25504;DHT22;13410;52.114;5.718;2023-04-12T14:26:01;18.20;99.90
25504;DHT22;13410;52.114;5.718;2023-04-12T14:28:26;18.10;99.90
25504;DHT22;13410;52.114;5.718;2023-04-12T14:30:58;18.10;99.90
25504;DHT22;13410;52.114;5.718;2023-04-12T14:33:25;17.90;99.90
25504;DHT22;13410;52.114;5.718;2023-04-12T14:35:52;17.90;99.90
25504;DHT22;13410;52.114;5.718;2023-04-12T14:38:18;17.80;99.90
25504;DHT22;13410;52.114;5.718;2023-04-12T14:40:44;17.70;99.90
25504;DHT22;13410;52.114;5.718;2023-04-12T14:43:09;17.60;99.90
25504;DHT22;13410;52.114;5.718;2023-04-12T14:45:38;17.60;99.90
25504;DHT22;13410;52.114;5.718;2023-04-12T14:48:04;17.60;99.90
25504;DHT22;13410;52.114;5.718;2023-04-12T14:50:29;17.60;99.90
25504;DHT22;13410;52.114;5.718;2023-04-12T14:52:55;17.40;99.90
25504;DHT22;13410;52.114;5.718;2023-04-12T14:55:21;17.20;99.90
25504;DHT22;13410;52.114;5.718;2023-04-12T14:57:47;17.30;99.90
25504;DHT22;13410;52.114;5.718;2023-04-12T15:00:13;17.10;99.90
25504;DHT22;13410;52.114;5.718;2023-04-12T15:02:39;17.10;99.90
25504;DHT22;13410;52.114;5.718;2023-04-12T15:05:06;16.90;99.90
25504;DHT22;13410;52.114;5.718;2023-04-12T15:07:33;16.90;99.90
25504;DHT22;13410;52.114;5.718;2023-04-12T15:09:59;16.60;99.90
25504;DHT22;13410;52.114;5.718;2023-04-12T15:12:25;16.70;99.90
25504;DHT22;13410;52.114;5.718;2023-04-12T15:14:51;16.50;99.90
25504;DHT22;13410;52.114;5.718;2023-04-12T15:17:18;16.60;99.90
25504;DHT22;13410;52.114;5.718;2023-04-12T15:19:44;16.70;99.90
25504;DHT22;13410;52.114;5.718;2023-04-12T15:22:10;16.50;99.90
25504;DHT22;13410;52.114;5.718;2023-04-12T15:24:36;16.70;99.90
25504;DHT22;13410;52.114;5.718;2023-04-12T15:27:01;16.80;99.90
25504;DHT22;13410;52.114;5.718;2023-04-12T15:29:27;17.10;99.90
25504;DHT22;13410;52.114;5.718;2023-04-12T15:31:52;17.00;99.90
25504;DHT22;13410;52.114;5.718;2023-04-12T15:34:20;17.00;99.90
25504;DHT22;13410;52.114;5.718;2023-04-12T15:36:48;17.00;99.90
25504;DHT22;13410;52.114;5.718;2023-04-12T15:39:13;17.00;99.90
25504;DHT22;13410;52.114;5.718;2023-04-12T15:41:39;17.20;99.90
25504;DHT22;13410;52.114;5.718;2023-04-12T15:44:08;17.30;99.90
25504;DHT22;13410;52.114;5.718;2023-04-12T15:46:38;17.20;99.90
25504;DHT22;13410;52.114;5.718;2023-04-12T15:49:04;17.20;99.90
25504;DHT22;13410;52.114;5.718;2023-04-12T15:51:29;16.80;99.90
25504;DHT22;13410;52.114;5.718;2023-04-12T15:53:56;16.80;99.90
25504;DHT22;13410;52.114;5.718;2023-04-12T15:56:22;16.70;99.90
25504;DHT22;13410;52.114;5.718;2023-04-12T15:58:51;16.80;99.90